createdAt,value
2023-04-09T00:01:12.025Z,101362.08
2023-04-09T00:06:17.739Z,101360.02
2023-04-09T00:11:23.192Z,101354.98
2023-04-09T00:16:28.577Z,101353.61
2023-04-09T00:21:33.902Z,101354.30
2023-04-09T00:26:39.435Z,101356.72
2023-04-09T00:31:45.013Z,101348.75
2023-04-09T00:36:50.652Z,101348.23
2023-04-09T00:41:59.023Z,101343.92
2023-04-09T00:47:05.319Z,101345.67
2023-04-09T00:52:11.214Z,101344.64
2023-04-09T00:57:16.886Z,101348.13
2023-04-09T01:02:22.411Z,101342.77
2023-04-09T01:07:36.168Z,101342.08
2023-04-09T01:12:54.612Z,101343.30
2023-04-09T01:18:06.783Z,101353.17
2023-04-09T01:23:18.655Z,101356.11
2023-04-09T01:28:30.434Z,101353.34
2023-04-09T01:33:38.013Z,101350.41
2023-04-09T01:38:45.410Z,101353.02
2023-04-09T01:43:52.240Z,101355.29
2023-04-09T01:48:58.660Z,101357.70
2023-04-09T01:54:04.480Z,101357.52
2023-04-09T01:59:10.322Z,101358.76
2023-04-09T02:04:22.886Z,101358.92
2023-04-09T02:09:31.543Z,101360.33
2023-04-09T02:14:37.554Z,101364.30
2023-04-09T02:19:47.660Z,101363.43
2023-04-09T02:24:53.159Z,101367.58
2023-04-09T02:29:58.550Z,101370.35
2023-04-09T02:35:04.447Z,101372.42
2023-04-09T02:40:11.961Z,101370.37
2023-04-09T02:45:17.404Z,101369.83
2023-04-09T02:50:23.194Z,101369.50
2023-04-09T02:55:30.357Z,101365.17
2023-04-09T03:00:36.045Z,101358.08
2023-04-09T03:05:41.571Z,101358.25
2023-04-09T03:10:47.020Z,101351.49
2023-04-09T03:15:54.149Z,101358.07
2023-04-09T03:20:59.727Z,101354.78
2023-04-09T03:26:06.823Z,101354.63
2023-04-09T03:31:18.505Z,101353.05
2023-04-09T03:36:24.704Z,101346.83
2023-04-09T03:41:35.689Z,101353.59
2023-04-09T03:46:47.577Z,101358.61
2023-04-09T03:51:55.177Z,101355.50
2023-04-09T03:57:03.666Z,101351.00
2023-04-09T04:02:09.316Z,101349.95
2023-04-09T04:07:17.087Z,101349.61
2023-04-09T04:12:33.926Z,101346.14
2023-04-09T04:17:46.172Z,101345.09
2023-04-09T04:23:02.039Z,101347.70
2023-04-09T04:28:08.094Z,101349.95
2023-04-09T04:33:17.661Z,101347.02
2023-04-09T04:38:27.697Z,101354.28
2023-04-09T04:43:33.925Z,101359.65
2023-04-09T04:48:39.672Z,101363.78
2023-04-09T04:53:45.514Z,101370.18
2023-04-09T04:58:52.379Z,101375.70
2023-04-09T05:03:58.730Z,101377.58
2023-04-09T05:09:08.957Z,101381.71
2023-04-09T05:14:21.526Z,101383.39
2023-04-09T05:19:27.106Z,101384.02
2023-04-09T05:24:38.702Z,101382.76
2023-04-09T05:29:44.625Z,101381.46
2023-04-09T05:34:50.848Z,101378.77
2023-04-09T05:48:43.363Z,101381.92
2023-04-09T05:53:50.006Z,101381.72
2023-04-09T05:58:55.996Z,101383.97
2023-04-09T06:04:02.190Z,101386.34
2023-04-09T06:09:08.924Z,101385.36
2023-04-09T06:14:18.460Z,101386.79
2023-04-09T06:19:24.120Z,101384.91
2023-04-09T06:24:31.301Z,101386.54
2023-04-09T06:29:36.846Z,101390.82
2023-04-09T06:34:42.692Z,101399.70
2023-04-09T06:40:00.632Z,101398.95
2023-04-09T06:45:08.788Z,101401.89
2023-04-09T06:50:14.505Z,101407.16
2023-04-09T06:55:20.353Z,101412.73
2023-04-09T07:00:26.103Z,101416.55
2023-04-09T07:05:31.674Z,101413.38
2023-04-09T07:10:37.241Z,101412.77
2023-04-09T07:15:42.853Z,101418.29
2023-04-09T07:20:48.509Z,101417.61
2023-04-09T07:25:54.394Z,101418.51
2023-04-09T07:31:02.811Z,101420.27
2023-04-09T07:36:08.626Z,101419.58
2023-04-09T07:41:17.305Z,101416.07
2023-04-09T07:46:23.022Z,101420.14
2023-04-09T07:51:28.622Z,101418.67
2023-04-09T07:56:33.966Z,101420.27
2023-04-09T08:01:43.737Z,101412.56
2023-04-09T08:06:55.729Z,101408.23
2023-04-09T08:12:01.379Z,101414.37
2023-04-09T08:17:14.137Z,101411.02
2023-04-09T08:22:20.072Z,101412.02
2023-04-09T08:27:25.554Z,101418.90
2023-04-09T08:32:31.577Z,101416.66
2023-04-09T08:37:37.082Z,101420.59
2023-04-09T08:42:46.431Z,101414.63
2023-04-09T08:47:53.316Z,101413.71
2023-04-09T08:53:02.363Z,101414.66
2023-04-09T08:58:09.596Z,101417.70
2023-04-09T09:03:15.197Z,101420.69
2023-04-09T09:08:26.840Z,101423.61
2023-04-09T09:13:32.283Z,101429.41
2023-04-09T09:18:42.101Z,101429.80
2023-04-09T09:23:49.670Z,101434.63
2023-04-09T09:28:56.503Z,101431.80
2023-04-09T09:34:11.957Z,101432.58
2023-04-09T09:39:18.040Z,101427.41
2023-04-09T09:44:38.650Z,101426.95
2023-04-09T09:49:44.279Z,101429.36
2023-04-09T09:54:53.387Z,101428.22
2023-04-09T10:00:04.243Z,101424.17
2023-04-09T10:05:52.613Z,101423.70
2023-04-09T10:11:08.942Z,101421.59
2023-04-09T10:16:15.482Z,101420.38
2023-04-09T10:21:31.112Z,101414.73
2023-04-09T10:26:41.637Z,101415.04
2023-04-09T10:31:53.804Z,101410.11
2023-04-09T10:36:59.978Z,101413.09
2023-04-09T10:42:12.481Z,101415.52
2023-04-09T10:47:36.098Z,101408.50
2023-04-09T10:52:42.551Z,101408.66
2023-04-09T10:57:48.248Z,101399.30
2023-04-09T11:03:19.327Z,101405.77
2023-04-09T11:08:27.857Z,101403.35
2023-04-09T11:13:34.338Z,101401.70
2023-04-09T11:18:40.969Z,101396.48
2023-04-09T11:23:53.014Z,101397.38
2023-04-09T11:28:58.873Z,101394.15
2023-04-09T11:34:04.751Z,101393.26
2023-04-09T11:39:10.408Z,101388.09
2023-04-09T11:44:15.944Z,101381.41
2023-04-09T11:49:22.513Z,101377.77
2023-04-09T11:54:33.275Z,101384.77
2023-04-09T11:59:41.251Z,101384.86
2023-04-09T12:04:52.212Z,101375.83
2023-04-09T12:10:02.993Z,101373.79
2023-04-09T12:15:18.637Z,101368.63
2023-04-09T12:20:39.533Z,101363.56
2023-04-09T12:25:46.866Z,101364.54
2023-04-09T12:30:52.407Z,101368.42
2023-04-09T12:35:58.518Z,101365.98
2023-04-09T12:41:04.468Z,101364.73
2023-04-09T12:46:10.311Z,101362.80
2023-04-09T12:51:16.212Z,101361.88
2023-04-09T12:56:21.710Z,101359.23
2023-04-09T13:01:27.326Z,101356.42
2023-04-09T13:06:32.822Z,101356.65
2023-04-09T13:11:38.267Z,101350.11
2023-04-09T13:16:43.728Z,101350.79
2023-04-09T13:21:49.183Z,101346.99
2023-04-09T13:26:54.532Z,101348.06
2023-04-09T13:32:02.608Z,101350.63
2023-04-09T13:37:09.259Z,101352.33
2023-04-09T13:42:17.132Z,101351.90
2023-04-09T13:47:24.111Z,101356.65
2023-04-09T13:52:30.444Z,101359.86
2023-04-09T13:57:36.495Z,101364.16
2023-04-09T14:02:42.225Z,101361.63
2023-04-09T14:07:47.691Z,101360.59
2023-04-09T14:12:53.304Z,101359.73
2023-04-09T14:17:58.762Z,101354.23
2023-04-09T14:23:04.191Z,101350.56
2023-04-09T14:28:09.621Z,101342.70
2023-04-09T14:33:15.290Z,101339.13
2023-04-09T14:38:20.693Z,101338.23
2023-04-09T14:43:26.205Z,101336.76
2023-04-09T14:48:31.850Z,101332.54
2023-04-09T14:53:37.467Z,101329.86
2023-04-09T14:58:43.239Z,101329.77
2023-04-09T15:03:48.680Z,101329.92
2023-04-09T15:08:54.615Z,101324.02
2023-04-09T15:14:00.414Z,101323.64
2023-04-09T15:19:05.816Z,101318.23
2023-04-09T15:24:11.522Z,101318.42
2023-04-09T15:29:16.880Z,101315.63
2023-04-09T15:34:23.740Z,101314.53
2023-04-09T15:39:29.488Z,101306.24
2023-04-09T15:44:36.291Z,101311.35
2023-04-09T15:49:41.765Z,101314.69
2023-04-09T15:54:47.077Z,101313.41
2023-04-09T15:59:53.751Z,101311.92
2023-04-09T16:04:59.171Z,101317.14
2023-04-09T16:10:05.759Z,101314.16
2023-04-09T16:15:12.287Z,101318.27
2023-04-09T16:20:17.992Z,101326.82
2023-04-09T16:25:24.544Z,101330.72
2023-04-09T16:30:31.672Z,101335.83
2023-04-09T16:35:39.471Z,101339.34
2023-04-09T16:40:45.935Z,101337.53
2023-04-09T16:45:52.288Z,101340.22
2023-04-09T16:50:57.854Z,101334.84
2023-04-09T16:56:04.237Z,101340.25
2023-04-09T17:01:09.607Z,101347.92
2023-04-09T17:06:15.150Z,101352.38
2023-04-09T17:11:21.306Z,101360.34
2023-04-09T17:16:27.796Z,101362.02
2023-04-09T17:21:33.409Z,101363.27
2023-04-09T17:26:39.123Z,101363.70
2023-04-09T17:31:45.037Z,101375.56
2023-04-09T17:36:56.442Z,101380.22
2023-04-09T17:42:04.044Z,101389.75
2023-04-09T17:47:09.496Z,101398.44
2023-04-09T17:52:16.384Z,101406.59
2023-04-09T17:57:22.191Z,101414.45
2023-04-09T18:02:27.847Z,101416.42
2023-04-09T18:07:34.024Z,101418.86
2023-04-09T18:12:39.587Z,101425.52
2023-04-09T18:17:45.386Z,101433.06
2023-04-09T18:22:52.155Z,101436.71
2023-04-09T18:27:57.610Z,101444.45
2023-04-09T18:33:03.087Z,101440.52
2023-04-09T18:38:08.983Z,101445.73
2023-04-09T18:43:14.445Z,101451.42
2023-04-09T18:48:20.388Z,101455.05
2023-04-09T18:53:26.691Z,101455.08
2023-04-09T18:58:33.750Z,101460.23
2023-04-09T19:03:39.846Z,101453.22
2023-04-09T19:08:46.624Z,101454.11
2023-04-09T19:13:52.563Z,101455.60
2023-04-09T19:18:58.482Z,101452.91
2023-04-09T19:24:06.037Z,101453.73
2023-04-09T19:29:12.165Z,101451.88
2023-04-09T19:34:17.614Z,101452.05
2023-04-09T19:39:23.502Z,101453.79
2023-04-09T19:44:29.357Z,101455.76
2023-04-09T19:49:35.472Z,101459.64
2023-04-09T19:54:41.263Z,101458.09
2023-04-09T19:59:48.588Z,101459.80
2023-04-09T20:04:55.685Z,101454.39
2023-04-09T20:10:01.112Z,101453.04
2023-04-09T20:15:09.977Z,101452.57
2023-04-09T20:20:20.211Z,101451.32
2023-04-09T20:25:26.075Z,101451.29
2023-04-09T20:30:32.362Z,101447.98
2023-04-09T20:35:38.033Z,101443.70
2023-04-09T20:40:43.536Z,101449.48
2023-04-09T20:46:12.690Z,101451.06
2023-04-09T20:51:18.245Z,101453.52
2023-04-09T20:56:23.758Z,101451.71
2023-04-09T21:01:29.455Z,101448.16
2023-04-09T21:06:36.297Z,101448.95
2023-04-09T21:11:41.843Z,101447.11
2023-04-09T21:16:47.509Z,101442.54
2023-04-09T21:21:53.457Z,101435.92
2023-04-09T21:26:59.052Z,101435.94
2023-04-09T21:32:04.556Z,101438.84
2023-04-09T21:37:10.417Z,101442.04
2023-04-09T21:42:15.870Z,101440.52
2023-04-09T21:47:22.831Z,101443.02
2023-04-09T21:52:28.298Z,101446.55
2023-04-09T21:57:33.740Z,101444.65
2023-04-09T22:02:40.092Z,101447.61
2023-04-09T22:07:45.914Z,101452.46
2023-04-09T22:12:51.375Z,101455.41
2023-04-09T22:17:57.785Z,101458.34
2023-04-09T22:23:03.496Z,101468.33
2023-04-09T22:28:09.007Z,101461.02
2023-04-09T22:33:14.482Z,101459.77
2023-04-09T22:38:20.957Z,101453.67
2023-04-09T22:43:26.543Z,101456.58
2023-04-09T22:48:35.843Z,101460.86
2023-04-09T22:53:43.966Z,101461.88
2023-04-09T22:58:49.511Z,101459.79
2023-04-09T23:03:55.081Z,101455.89
2023-04-09T23:09:00.484Z,101459.29
2023-04-09T23:14:06.194Z,101451.27
2023-04-09T23:19:11.724Z,101449.13
2023-04-09T23:24:17.690Z,101444.80
2023-04-09T23:29:23.336Z,101442.86
2023-04-09T23:34:28.831Z,101443.49
2023-04-09T23:39:34.440Z,101441.73
2023-04-09T23:44:40.021Z,101438.58
2023-04-09T23:49:45.392Z,101439.42
2023-04-09T23:54:51.582Z,101436.73
2023-04-09T23:59:57.213Z,101436.46
